Aviation Digital Data Service (ADDS)

Output produced by METARs form (0028 UTC 17 July 2019)
found at http://www.aviationweather.gov/metar/data/
 
METAR text: GBYD 170000Z 21006KT CAVOK 26/22 Q1013
Conditions at: GBYD (BANJUL/YUNDUM IN, GM) observed 0000 UTC 17 July 2019
Temperature: 26.0°C (79°F)
Dewpoint: 22.0°C (72°F) [RH = 79%]
Pressure (altimeter): 29.91 inches Hg (1013.0 mb)
Winds: from the SSW (210 degrees) at 7 MPH (6 knots; 3.1 m/s)
Visibility: 6 or more miles (10+ km)
Ceiling: ceiling and visibility are OK
Clouds: unknown
Weather: no significant weather observed at this time

METAR text: GBYD 162300Z VRB02KT CAVOK 26/22 Q1013
Conditions at: GBYD (BANJUL/YUNDUM IN, GM) observed 2300 UTC 16 July 2019
Temperature: 26.0°C (79°F)
Dewpoint: 22.0°C (72°F) [RH = 79%]
Pressure (altimeter): 29.91 inches Hg (1013.0 mb)
Winds: variable direction winds at 2 MPH (2 knots; 1.0 m/s)
Visibility: 6 or more miles (10+ km)
Ceiling: ceiling and visibility are OK
Clouds: unknown
Weather: no significant weather observed at this time

METAR text: GBYD 162200Z VRB01KT CAVOK 27/23 Q1013
Conditions at: GBYD (BANJUL/YUNDUM IN, GM) observed 2200 UTC 16 July 2019
Temperature: 27.0°C (81°F)
Dewpoint: 23.0°C (73°F) [RH = 79%]
Pressure (altimeter): 29.91 inches Hg (1013.0 mb)
Winds: variable direction winds at 1 MPH (1 knots; 0.5 m/s)
Visibility: 6 or more miles (10+ km)
Ceiling: ceiling and visibility are OK
Clouds: unknown
Weather: no significant weather observed at this time

METAR text: GBYD 162100Z VRBO2KT CAVOK 27/22 Q1012
Conditions at: GBYD (BANJUL/YUNDUM IN, GM) observed 2100 UTC 16 July 2019
Temperature: 27.0°C (81°F)
Dewpoint: 22.0°C (72°F) [RH = 74%]
Pressure (altimeter): 29.88 inches Hg (1012.0 mb)
Winds: missing
Visibility: 6 or more miles (10+ km)
Ceiling: ceiling and visibility are OK
Clouds: unknown
Weather: no significant weather observed at this time

METAR text: GBYD 162000Z 22005KT 9999 FEW011 SCT120 27/22 Q1011
Conditions at: GBYD (BANJUL/YUNDUM IN, GM) observed 2000 UTC 16 July 2019
Temperature: 27.0°C (81°F)
Dewpoint: 22.0°C (72°F) [RH = 74%]
Pressure (altimeter): 29.85 inches Hg (1011.0 mb)
Winds: from the SW (220 degrees) at 6 MPH (5 knots; 2.6 m/s)
Visibility: 6 or more miles (10+ km)
Ceiling: at least 12,000 feet AGL
Clouds: few clouds at 1100 feet AGL
scattered clouds at 12000 feet AGL
Weather: no significant weather observed at this time

METAR text: GBYD 161900Z 20009KT 9999 FEW012 SCT120 BKN220 28/22 Q1009
Conditions at: GBYD (BANJUL/YUNDUM IN, GM) observed 1900 UTC 16 July 2019
Temperature: 28.0°C (82°F)
Dewpoint: 22.0°C (72°F) [RH = 70%]
Pressure (altimeter): 29.79 inches Hg (1009.0 mb)
Winds: from the SSW (200 degrees) at 10 MPH (9 knots; 4.6 m/s)
Visibility: 6 or more miles (10+ km)
Ceiling: 22000 feet AGL
Clouds: few clouds at 1200 feet AGL
scattered clouds at 12000 feet AGL
broken clouds at 22000 feet AGL
Weather: no significant weather observed at this time

METAR text: GBYD 161800Z 24005KT 9999 FEW013 SCT130 SCT230 32/22 Q1009
Conditions at: GBYD (BANJUL/YUNDUM IN, GM) observed 1800 UTC 16 July 2019
Temperature: 32.0°C (90°F)
Dewpoint: 22.0°C (72°F) [RH = 56%]
Pressure (altimeter): 29.79 inches Hg (1009.0 mb)
Winds: from the WSW (240 degrees) at 6 MPH (5 knots; 2.6 m/s)
Visibility: 6 or more miles (10+ km)
Ceiling: at least 12,000 feet AGL
Clouds: few clouds at 1300 feet AGL
scattered clouds at 13000 feet AGL
scattered clouds at 23000 feet AGL
Weather: no significant weather observed at this time

METAR text: GBYD 161700Z 21009KT 9999 FEW013 SCT130 SCT230 31/22 Q1009
Conditions at: GBYD (BANJUL/YUNDUM IN, GM) observed 1700 UTC 16 July 2019
Temperature: 31.0°C (88°F)
Dewpoint: 22.0°C (72°F) [RH = 59%]
Pressure (altimeter): 29.79 inches Hg (1009.0 mb)
Winds: from the SSW (210 degrees) at 10 MPH (9 knots; 4.6 m/s)
Visibility: 6 or more miles (10+ km)
Ceiling: at least 12,000 feet AGL
Clouds: few clouds at 1300 feet AGL
scattered clouds at 13000 feet AGL
scattered clouds at 23000 feet AGL
Weather: no significant weather observed at this time

METAR text: GBYD 161600Z 03008KT 9999 SCT013 BKN130 FEW230 32/22 Q1010
Conditions at: GBYD (BANJUL/YUNDUM IN, GM) observed 1600 UTC 16 July 2019
Temperature: 32.0°C (90°F)
Dewpoint: 22.0°C (72°F) [RH = 56%]
Pressure (altimeter): 29.82 inches Hg (1010.0 mb)
Winds: from the NNE (30 degrees) at 9 MPH (8 knots; 4.1 m/s)
Visibility: 6 or more miles (10+ km)
Ceiling: 13000 feet AGL
Clouds: scattered clouds at 1300 feet AGL
broken clouds at 13000 feet AGL
few clouds at 23000 feet AGL
Weather: no significant weather observed at this time

METAR text: GBYD 161500Z 07005KT 9999 SCT013 BKN130 FEW230 31/21 Q1011
Conditions at: GBYD (BANJUL/YUNDUM IN, GM) observed 1500 UTC 16 July 2019
Temperature: 31.0°C (88°F)
Dewpoint: 21.0°C (70°F) [RH = 55%]
Pressure (altimeter): 29.85 inches Hg (1011.0 mb)
Winds: from the ENE (70 degrees) at 6 MPH (5 knots; 2.6 m/s)
Visibility: 6 or more miles (10+ km)
Ceiling: 13000 feet AGL
Clouds: scattered clouds at 1300 feet AGL
broken clouds at 13000 feet AGL
few clouds at 23000 feet AGL
Weather: no significant weather observed at this time

METAR text: GBYD 161400Z 08006KT 9999 BKN012 SCT130 31/22 Q1011
Conditions at: GBYD (BANJUL/YUNDUM IN, GM) observed 1400 UTC 16 July 2019
Temperature: 31.0°C (88°F)
Dewpoint: 22.0°C (72°F) [RH = 59%]
Pressure (altimeter): 29.85 inches Hg (1011.0 mb)
Winds: from the E (80 degrees) at 7 MPH (6 knots; 3.1 m/s)
Visibility: 6 or more miles (10+ km)
Ceiling: 1200 feet AGL
Clouds: broken clouds at 1200 feet AGL
scattered clouds at 13000 feet AGL
Weather: no significant weather observed at this time

METAR text: GBYD 161300Z 34010KT 9999 BKN012 FEW220 29/21 Q1013
Conditions at: GBYD (BANJUL/YUNDUM IN, GM) observed 1300 UTC 16 July 2019
Temperature: 29.0°C (84°F)
Dewpoint: 21.0°C (70°F) [RH = 62%]
Pressure (altimeter): 29.91 inches Hg (1013.0 mb)
Winds: from the NNW (340 degrees) at 12 MPH (10 knots; 5.1 m/s)
Visibility: 6 or more miles (10+ km)
Ceiling: 1200 feet AGL
Clouds: broken clouds at 1200 feet AGL
few clouds at 22000 feet AGL
Weather: no significant weather observed at this time

METAR text: GBYD 162100Z 26004KT 9999 SCT012 FEW120 FEW220 30/21 Q1012
Conditions at: GBYD (BANJUL/YUNDUM IN, GM) observed 1152 UTC 16 July 2019
Temperature: 30.0°C (86°F)
Dewpoint: 21.0°C (70°F) [RH = 59%]
Pressure (altimeter): 29.88 inches Hg (1012.0 mb)
Winds: from the W (260 degrees) at 5 MPH (4 knots; 2.1 m/s)
Visibility: 6 or more miles (10+ km)
Ceiling: at least 12,000 feet AGL
Clouds: scattered clouds at 1200 feet AGL
few clouds at 12000 feet AGL
few clouds at 22000 feet AGL
Weather: no significant weather observed at this time

METAR text: GBYD 161100Z 32005KT 9999 SCT011 FEW210 28/21 Q1012
Conditions at: GBYD (BANJUL/YUNDUM IN, GM) observed 1100 UTC 16 July 2019
Temperature: 28.0°C (82°F)
Dewpoint: 21.0°C (70°F) [RH = 66%]
Pressure (altimeter): 29.88 inches Hg (1012.0 mb)
Winds: from the NW (320 degrees) at 6 MPH (5 knots; 2.6 m/s)
Visibility: 6 or more miles (10+ km)
Ceiling: at least 12,000 feet AGL
Clouds: scattered clouds at 1100 feet AGL
few clouds at 21000 feet AGL
Weather: no significant weather observed at this time

METAR text: GBYD 161000Z 27007KT 9999 SCT011 SCT210 28/21 Q1012
Conditions at: GBYD (BANJUL/YUNDUM IN, GM) observed 1000 UTC 16 July 2019
Temperature: 28.0°C (82°F)
Dewpoint: 21.0°C (70°F) [RH = 66%]
Pressure (altimeter): 29.88 inches Hg (1012.0 mb)
Winds: from the W (270 degrees) at 8 MPH (7 knots; 3.6 m/s)
Visibility: 6 or more miles (10+ km)
Ceiling: at least 12,000 feet AGL
Clouds: scattered clouds at 1100 feet AGL
scattered clouds at 21000 feet AGL
Weather: no significant weather observed at this time

METAR text: GBYD 160900 27004KT 9999 FEW010 BKN210 27/21 Q1012
Conditions at: GBYD (BANJUL/YUNDUM IN, GM) observed 0900 UTC 16 July 2019
Temperature: 27.0°C (81°F)
Dewpoint: 21.0°C (70°F) [RH = 70%]
Pressure (altimeter): 29.88 inches Hg (1012.0 mb)
Winds: from the W (270 degrees) at 5 MPH (4 knots; 2.1 m/s)
Visibility: 6 or more miles (10+ km)
Ceiling: 21000 feet AGL
Clouds: few clouds at 1000 feet AGL
broken clouds at 21000 feet AGL
Weather: no significant weather observed at this time

METAR text: GBYD 160800Z VRB03KT 9999 FEW010 BKN200 25/21 Q1011
Conditions at: GBYD (BANJUL/YUNDUM IN, GM) observed 0800 UTC 16 July 2019
Temperature: 25.0°C (77°F)
Dewpoint: 21.0°C (70°F) [RH = 79%]
Pressure (altimeter): 29.85 inches Hg (1011.0 mb)
Winds: variable direction winds at 3 MPH (3 knots; 1.5 m/s)
Visibility: 6 or more miles (10+ km)
Ceiling: 20000 feet AGL
Clouds: few clouds at 1000 feet AGL
broken clouds at 20000 feet AGL
Weather: no significant weather observed at this time

METAR text: GBYD 160700Z 25005KT 9999 FEW010 BKN200 25/21 Q1010
Conditions at: GBYD (BANJUL/YUNDUM IN, GM) observed 0700 UTC 16 July 2019
Temperature: 25.0°C (77°F)
Dewpoint: 21.0°C (70°F) [RH = 79%]
Pressure (altimeter): 29.82 inches Hg (1010.0 mb)
Winds: from the WSW (250 degrees) at 6 MPH (5 knots; 2.6 m/s)
Visibility: 6 or more miles (10+ km)
Ceiling: 20000 feet AGL
Clouds: few clouds at 1000 feet AGL
broken clouds at 20000 feet AGL
Weather: no significant weather observed at this time

METAR text: GBYD 160600Z 26005KT 9999 FEW010 SCT200 25/21 Q1010
Conditions at: GBYD (BANJUL/YUNDUM IN, GM) observed 0600 UTC 16 July 2019
Temperature: 25.0°C (77°F)
Dewpoint: 21.0°C (70°F) [RH = 79%]
Pressure (altimeter): 29.82 inches Hg (1010.0 mb)
Winds: from the W (260 degrees) at 6 MPH (5 knots; 2.6 m/s)
Visibility: 6 or more miles (10+ km)
Ceiling: at least 12,000 feet AGL
Clouds: few clouds at 1000 feet AGL
scattered clouds at 20000 feet AGL
Weather: no significant weather observed at this time

METAR text: GBYD 160500Z VRB04KT 9999 SCT010 25/21 Q1010
Conditions at: GBYD (BANJUL/YUNDUM IN, GM) observed 0500 UTC 16 July 2019
Temperature: 25.0°C (77°F)
Dewpoint: 21.0°C (70°F) [RH = 79%]
Pressure (altimeter): 29.82 inches Hg (1010.0 mb)
Winds: variable direction winds at 5 MPH (4 knots; 2.1 m/s)
Visibility: 6 or more miles (10+ km)
Ceiling: at least 12,000 feet AGL
Clouds: scattered clouds at 1000 feet AGL
Weather: no significant weather observed at this time

METAR text: GBYD 161500Z VRB04KT 9999 SCT010 25/21 Q1010
Conditions at: GBYD (BANJUL/YUNDUM IN, GM) observed 0448 UTC 16 July 2019
Temperature: 25.0°C (77°F)
Dewpoint: 21.0°C (70°F) [RH = 79%]
Pressure (altimeter): 29.82 inches Hg (1010.0 mb)
Winds: variable direction winds at 5 MPH (4 knots; 2.1 m/s)
Visibility: 6 or more miles (10+ km)
Ceiling: at least 12,000 feet AGL
Clouds: scattered clouds at 1000 feet AGL
Weather: no significant weather observed at this time

METAR text: GBYD 160400Z VRB04KT 9999 SCT010 25/21 Q1010
Conditions at: GBYD (BANJUL/YUNDUM IN, GM) observed 0400 UTC 16 July 2019
Temperature: 25.0°C (77°F)
Dewpoint: 21.0°C (70°F) [RH = 79%]
Pressure (altimeter): 29.82 inches Hg (1010.0 mb)
Winds: variable direction winds at 5 MPH (4 knots; 2.1 m/s)
Visibility: 6 or more miles (10+ km)
Ceiling: at least 12,000 feet AGL
Clouds: scattered clouds at 1000 feet AGL
Weather: no significant weather observed at this time

METAR text: GBYD 160300Z 25006KT 9999 SCT010 FEW200 26/21 Q1011
Conditions at: GBYD (BANJUL/YUNDUM IN, GM) observed 0300 UTC 16 July 2019
Temperature: 26.0°C (79°F)
Dewpoint: 21.0°C (70°F) [RH = 74%]
Pressure (altimeter): 29.85 inches Hg (1011.0 mb)
Winds: from the WSW (250 degrees) at 7 MPH (6 knots; 3.1 m/s)
Visibility: 6 or more miles (10+ km)
Ceiling: at least 12,000 feet AGL
Clouds: scattered clouds at 1000 feet AGL
few clouds at 20000 feet AGL
Weather: no significant weather observed at this time

METAR text: GBYD 160200Z 26006KT 9999 BKN010 SCT200 25/21 Q1011
Conditions at: GBYD (BANJUL/YUNDUM IN, GM) observed 0200 UTC 16 July 2019
Temperature: 25.0°C (77°F)
Dewpoint: 21.0°C (70°F) [RH = 79%]
Pressure (altimeter): 29.85 inches Hg (1011.0 mb)
Winds: from the W (260 degrees) at 7 MPH (6 knots; 3.1 m/s)
Visibility: 6 or more miles (10+ km)
Ceiling: 1000 feet AGL
Clouds: broken clouds at 1000 feet AGL
scattered clouds at 20000 feet AGL
Weather: no significant weather observed at this time

METAR text: GBYD 160100Z 25007KT 9999 FEW011 BKN210 25/21 Q1011
Conditions at: GBYD (BANJUL/YUNDUM IN, GM) observed 0100 UTC 16 July 2019
Temperature: 25.0°C (77°F)
Dewpoint: 21.0°C (70°F) [RH = 79%]
Pressure (altimeter): 29.85 inches Hg (1011.0 mb)
Winds: from the WSW (250 degrees) at 8 MPH (7 knots; 3.6 m/s)
Visibility: 6 or more miles (10+ km)
Ceiling: 21000 feet AGL
Clouds: few clouds at 1100 feet AGL
broken clouds at 21000 feet AGL
Weather: no significant weather observed at this time

METAR text: GBYD 160000Z 26005KT CAVOK 26/22 Q1012
Conditions at: GBYD (BANJUL/YUNDUM IN, GM) observed 0000 UTC 16 July 2019
Temperature: 26.0°C (79°F)
Dewpoint: 22.0°C (72°F) [RH = 79%]
Pressure (altimeter): 29.88 inches Hg (1012.0 mb)
Winds: from the W (260 degrees) at 6 MPH (5 knots; 2.6 m/s)
Visibility: 6 or more miles (10+ km)
Ceiling: ceiling and visibility are OK
Clouds: unknown
Weather: no significant weather observed at this time

METAR text: GBYD 152300Z 24008KT 9999 FEW011 FEW110 BKN210 26/23 Q1012
Conditions at: GBYD (BANJUL/YUNDUM IN, GM) observed 2300 UTC 15 July 2019
Temperature: 26.0°C (79°F)
Dewpoint: 23.0°C (73°F) [RH = 84%]
Pressure (altimeter): 29.88 inches Hg (1012.0 mb)
Winds: from the WSW (240 degrees) at 9 MPH (8 knots; 4.1 m/s)
Visibility: 6 or more miles (10+ km)
Ceiling: 21000 feet AGL
Clouds: few clouds at 1100 feet AGL
few clouds at 11000 feet AGL
broken clouds at 21000 feet AGL
Weather: no significant weather observed at this time

METAR text: GBYD 152200Z 25006KT 9999 FEW011 BKN210 26/23 Q1011
Conditions at: GBYD (BANJUL/YUNDUM IN, GM) observed 2200 UTC 15 July 2019
Temperature: 26.0°C (79°F)
Dewpoint: 23.0°C (73°F) [RH = 84%]
Pressure (altimeter): 29.85 inches Hg (1011.0 mb)
Winds: from the WSW (250 degrees) at 7 MPH (6 knots; 3.1 m/s)
Visibility: 6 or more miles (10+ km)
Ceiling: 21000 feet AGL
Clouds: few clouds at 1100 feet AGL
broken clouds at 21000 feet AGL
Weather: no significant weather observed at this time

METAR text: GBYD 152100Z 26011KT 9999 SCT011 27/23 Q1011
Conditions at: GBYD (BANJUL/YUNDUM IN, GM) observed 2100 UTC 15 July 2019
Temperature: 27.0°C (81°F)
Dewpoint: 23.0°C (73°F) [RH = 79%]
Pressure (altimeter): 29.85 inches Hg (1011.0 mb)
Winds: from the W (260 degrees) at 13 MPH (11 knots; 5.7 m/s)
Visibility: 6 or more miles (10+ km)
Ceiling: at least 12,000 feet AGL
Clouds: scattered clouds at 1100 feet AGL
Weather: no significant weather observed at this time

METAR text: GBYD 152000Z 25007KT 9999 SCT011 28/24 Q1011
Conditions at: GBYD (BANJUL/YUNDUM IN, GM) observed 2000 UTC 15 July 2019
Temperature: 28.0°C (82°F)
Dewpoint: 24.0°C (75°F) [RH = 79%]
Pressure (altimeter): 29.85 inches Hg (1011.0 mb)
Winds: from the WSW (250 degrees) at 8 MPH (7 knots; 3.6 m/s)
Visibility: 6 or more miles (10+ km)
Ceiling: at least 12,000 feet AGL
Clouds: scattered clouds at 1100 feet AGL
Weather: no significant weather observed at this time

METAR text: GBYD 151900Z 26009KT 9999 BKN012 FEW220 28/24 Q1010
Conditions at: GBYD (BANJUL/YUNDUM IN, GM) observed 1900 UTC 15 July 2019
Temperature: 28.0°C (82°F)
Dewpoint: 24.0°C (75°F) [RH = 79%]
Pressure (altimeter): 29.82 inches Hg (1010.0 mb)
Winds: from the W (260 degrees) at 10 MPH (9 knots; 4.6 m/s)
Visibility: 6 or more miles (10+ km)
Ceiling: 1200 feet AGL
Clouds: broken clouds at 1200 feet AGL
few clouds at 22000 feet AGL
Weather: no significant weather observed at this time

METAR text: GBYD 151800Z 21014KT 9999 SCT013 SCT014 ///// Q1010
Conditions at: GBYD (BANJUL/YUNDUM IN, GM) observed 1800 UTC 15 July 2019
Temperature: missing
Dewpoint: missing
Pressure (altimeter): 29.82 inches Hg (1010.0 mb)
Winds: from the SSW (210 degrees) at 16 MPH (14 knots; 7.2 m/s)
Visibility: 6 or more miles (10+ km)
Ceiling: at least 12,000 feet AGL
Clouds: scattered clouds at 1300 feet AGL
scattered clouds at 1400 feet AGL
Weather: no significant weather observed at this time

METAR text: GBYD 151700Z 25009KT 9999 SCT013 BKN014 32/24 Q1010
Conditions at: GBYD (BANJUL/YUNDUM IN, GM) observed 1700 UTC 15 July 2019
Temperature: 32.0°C (90°F)
Dewpoint: 24.0°C (75°F) [RH = 63%]
Pressure (altimeter): 29.82 inches Hg (1010.0 mb)
Winds: from the WSW (250 degrees) at 10 MPH (9 knots; 4.6 m/s)
Visibility: 6 or more miles (10+ km)
Ceiling: 1400 feet AGL
Clouds: scattered clouds at 1300 feet AGL
broken clouds at 1400 feet AGL
Weather: no significant weather observed at this time

METAR text: GBYD 151600Z 22011KT 9999 FEW013 SCT014 32/24 Q1010
Conditions at: GBYD (BANJUL/YUNDUM IN, GM) observed 1600 UTC 15 July 2019
Temperature: 32.0°C (90°F)
Dewpoint: 24.0°C (75°F) [RH = 63%]
Pressure (altimeter): 29.82 inches Hg (1010.0 mb)
Winds: from the SW (220 degrees) at 13 MPH (11 knots; 5.7 m/s)
Visibility: 6 or more miles (10+ km)
Ceiling: at least 12,000 feet AGL
Clouds: few clouds at 1300 feet AGL
scattered clouds at 1400 feet AGL
Weather: no significant weather observed at this time

METAR text: GBYD 151500Z 23015KT 9999 FEW013 FEW014 32/23 Q1010
Conditions at: GBYD (BANJUL/YUNDUM IN, GM) observed 1500 UTC 15 July 2019
Temperature: 32.0°C (90°F)
Dewpoint: 23.0°C (73°F) [RH = 59%]
Pressure (altimeter): 29.82 inches Hg (1010.0 mb)
Winds: from the SW (230 degrees) at 17 MPH (15 knots; 7.7 m/s)
Visibility: 6 or more miles (10+ km)
Ceiling: at least 12,000 feet AGL
Clouds: few clouds at 1300 feet AGL
few clouds at 1400 feet AGL
Weather: no significant weather observed at this time

METAR text: GBYD 151400Z 22011KT 9999 FEW013 SCT014 33/24 Q1011
Conditions at: GBYD (BANJUL/YUNDUM IN, GM) observed 1400 UTC 15 July 2019
Temperature: 33.0°C (91°F)
Dewpoint: 24.0°C (75°F) [RH = 59%]
Pressure (altimeter): 29.85 inches Hg (1011.0 mb)
Winds: from the SW (220 degrees) at 13 MPH (11 knots; 5.7 m/s)
Visibility: 6 or more miles (10+ km)
Ceiling: at least 12,000 feet AGL
Clouds: few clouds at 1300 feet AGL
scattered clouds at 1400 feet AGL
Weather: no significant weather observed at this time

METAR text: GBYD 151300Z 26010KT 9999 FEW013 SCT014 32/24 Q1012
Conditions at: GBYD (BANJUL/YUNDUM IN, GM) observed 1300 UTC 15 July 2019
Temperature: 32.0°C (90°F)
Dewpoint: 24.0°C (75°F) [RH = 63%]
Pressure (altimeter): 29.88 inches Hg (1012.0 mb)
Winds: from the W (260 degrees) at 12 MPH (10 knots; 5.1 m/s)
Visibility: 6 or more miles (10+ km)
Ceiling: at least 12,000 feet AGL
Clouds: few clouds at 1300 feet AGL
scattered clouds at 1400 feet AGL
Weather: no significant weather observed at this time

Forecast for: GBYD (BANJUL/YUNDUM IN, GM)
Text: TAF GBYD 162330Z 1700/1806 26007KT 9999 SCT012
Forecast period: 0000 UTC 17 July 2019 to 0600 UTC 18 July 2019
Forecast type: FROM: standard forecast or significant change
Winds: from the W (260 degrees) at 8 MPH (7 knots; 3.6 m/s)
Visibility: 6 or more miles 10+ km)
Ceiling: at least 12,000 feet AGL
Clouds: scattered clouds at 1200 feet AGL
Weather: no significant weather forecast for this period
Text: PROB30
Forecast period: 1900 UTC 17 July 2019 to 0000 UTC 18 July 2019
Forecast type: TEMPORARY: The following changes expected for less than half the time period
Visibility: 2.80 miles (4.51 km)
Ceiling: 1200 feet AGL
Clouds: broken clouds at 1200 feet AGL
few clouds at 1800 feet AGL
Weather: TSRA  (rain associated with thunderstorm(s))